Time;durP1;ratioP1;P1;durP2;ratioP2;P2;SDS_P1;SDS_P2;PMS_P1;PMS_P2;Temp;Humidity;BMP_temperature;BMP_pressure;BME280_temperature;BME280_humidity;BME280_pressure;Samples;Min_cycle;Max_cycle;Signal;HPM_P1;HPM_P2
2022/01/27 00:00:48;;;;;;;56.78;35.40;;;;;;;3.37;81.23;102724.78;5070391;28;20214;-68
2022/01/27 00:03:27;;;;;;;49.88;33.60;;;;;;;3.36;80.42;102728.31;5070122;28;20028;-68
2022/01/27 00:05:57;;;;;;;50.38;33.20;;;;;;;3.45;79.77;102722.16;5070086;28;20033;-68
2022/01/27 00:08:42;;;;;;;54.90;33.83;;;;;;;3.36;80.71;102718.66;5068698;28;20094;-68
2022/01/27 00:11:16;;;;;;;49.90;32.28;;;;;;;3.34;81.00;102709.88;5069629;28;20046;-68
2022/01/27 00:14:04;;;;;;;53.90;33.92;;;;;;;3.33;81.01;102695.00;5069405;28;20403;-68
2022/01/27 00:16:31;;;;;;;58.72;33.63;;;;;;;3.37;80.65;102698.50;5069749;28;20032;-68
2022/01/27 00:18:57;;;;;;;52.57;33.60;;;;;;;3.29;81.05;102682.72;5070086;28;20032;-69
2022/01/27 00:21:29;;;;;;;54.78;34.13;;;;;;;3.33;80.95;102673.97;5070142;28;20082;-68
2022/01/27 00:23:55;;;;;;;53.38;34.22;;;;;;;3.37;80.40;102669.56;5069743;28;20428;-68
2022/01/27 00:26:22;;;;;;;50.30;31.40;;;;;;;3.32;80.97;102669.56;5070120;28;20028;-68
2022/01/27 00:28:51;;;;;;;50.83;32.17;;;;;;;3.38;80.45;102673.94;5068915;28;20035;-68
2022/01/27 00:31:18;;;;;;;49.03;33.10;;;;;;;3.35;80.55;102666.06;5068295;28;20024;-68
2022/01/27 00:33:44;;;;;;;51.88;34.13;;;;;;;3.39;80.56;102675.69;5068559;28;20491;-68
2022/01/27 00:36:10;;;;;;;47.28;31.98;;;;;;;3.32;81.01;102674.81;5069588;28;20052;-68
2022/01/27 00:38:35;;;;;;;52.50;34.00;;;;;;;3.37;81.17;102678.31;5069227;28;20609;-68
2022/01/27 00:41:01;;;;;;;55.50;32.90;;;;;;;3.58;79.79;102676.47;5069220;28;20082;-69
2022/01/27 00:43:29;;;;;;;51.08;32.67;;;;;;;3.42;80.40;102663.41;5067411;28;20033;-69
2022/01/27 00:45:55;;;;;;;51.35;33.90;;;;;;;3.33;80.98;102666.06;5068141;28;20028;-68
2022/01/27 00:48:20;;;;;;;49.25;31.85;;;;;;;3.42;80.79;102662.53;5074081;28;20039;-68
2022/01/27 00:50:51;;;;;;;47.35;33.10;;;;;;;3.43;80.39;102661.63;5080619;28;20487;-68
2022/01/27 00:53:28;;;;;;;51.38;33.03;;;;;;;3.40;80.42;102645.88;5081668;28;20028;-69
2022/01/27 00:55:56;;;;;;;49.35;32.55;;;;;;;3.45;80.18;102645.88;5071786;28;20048;-69
2022/01/27 00:58:44;;;;;;;50.10;33.38;;;;;;;3.51;80.24;102646.72;5073146;28;20055;-68
2022/01/27 01:01:14;;;;;;;49.30;32.42;;;;;;;3.52;80.44;102643.19;5057876;28;20094;-68
2022/01/27 01:03:43;;;;;;;47.97;31.05;;;;;;;3.51;80.41;102645.84;5073054;28;20024;-68
2022/01/27 01:16:59;;;;;;;48.75;32.28;;;;;;;3.61;80.15;102635.25;5073417;28;20051;-68
2022/01/27 01:19:43;;;;;;;49.45;31.05;;;;;;;3.54;80.36;102623.00;5072748;28;20391;-69
2022/01/27 01:32:53;;;;;;;40.38;26.70;;;;;;;3.64;79.85;102619.44;5072812;28;20061;-70
2022/01/27 01:35:39;;;;;;;41.67;29.17;;;;;;;3.61;80.43;102623.84;5073097;28;20054;-68
2022/01/27 01:38:04;;;;;;;49.92;28.77;;;;;;;3.57;80.69;102612.47;5070929;28;20127;-68
2022/01/27 01:40:30;;;;;;;49.17;31.70;;;;;;;3.61;80.11;102613.31;5072429;28;20107;-68
2022/01/27 01:42:56;;;;;;;49.42;30.58;;;;;;;3.58;81.13;102595.78;5072658;28;20028;-68
2022/01/27 01:45:22;;;;;;;49.22;29.20;;;;;;;3.71;79.43;102596.63;5071959;28;20028;-68
2022/01/27 01:47:51;;;;;;;46.95;30.92;;;;;;;3.61;80.63;102585.25;5072453;28;20051;-68
2022/01/27 01:50:19;;;;;;;46.07;30.37;;;;;;;3.56;80.42;102565.13;5072514;28;20025;-68
2022/01/27 01:52:44;;;;;;;47.47;31.58;;;;;;;3.66;80.34;102569.47;5072229;28;20311;-68
2022/01/27 01:55:11;;;;;;;46.13;30.30;;;;;;;3.63;79.90;102580.88;5070818;28;20051;-69
2022/01/27 01:57:37;;;;;;;49.00;31.02;;;;;;;3.64;80.37;102581.72;5072152;28;20016;-68
2022/01/27 02:00:09;;;;;;;46.03;31.23;;;;;;;3.68;80.67;102594.00;5070234;28;20104;-69
2022/01/27 02:02:35;;;;;;;47.72;30.30;;;;;;;3.62;80.48;102584.38;5070316;28;20070;-69
2022/01/27 02:05:01;;;;;;;46.55;30.83;;;;;;;3.64;80.16;102584.38;5071786;28;20029;-68
2022/01/27 02:07:49;;;;;;;47.60;30.90;;;;;;;3.66;80.94;102582.59;5054089;28;20078;-68
2022/01/27 02:10:34;;;;;;;42.42;30.25;;;;;;;3.67;80.39;102571.19;5072004;28;20046;-69
2022/01/27 02:18:29;;;;;;;40.83;29.30;;;;;;;3.69;80.17;102537.00;5072268;28;20048;-68
2022/01/27 02:20:55;;;;;;;44.28;29.48;;;;;;;3.71;80.44;102537.88;5070204;28;20033;-68
2022/01/27 02:23:22;;;;;;;44.33;29.92;;;;;;;3.70;80.90;102525.56;5071887;28;20028;-68
2022/01/27 02:25:48;;;;;;;41.45;28.00;;;;;;;3.76;80.53;102530.78;5071551;28;20040;-68
2022/01/27 02:28:13;;;;;;;41.40;28.88;;;;;;;3.74;80.22;102537.84;5072166;28;20143;-68
2022/01/27 02:30:39;;;;;;;44.03;29.45;;;;;;;3.74;80.75;102533.44;5071133;28;20039;-68
2022/01/27 02:33:04;;;;;;;42.25;28.13;;;;;;;3.73;80.24;102539.56;5071258;28;20399;-68
2022/01/27 02:35:33;;;;;;;48.90;31.13;;;;;;;3.73;80.96;102549.22;5071377;28;20024;-68
2022/01/27 02:38:01;;;;;;;43.50;28.48;;;;;;;3.87;80.04;102542.97;5071657;28;20064;-68
2022/01/27 02:40:26;;;;;;;41.40;28.00;;;;;;;3.78;80.42;102542.19;5071994;28;20110;-68
2022/01/27 02:42:53;;;;;;;47.53;30.20;;;;;;;3.72;80.86;102536.97;5071366;28;20491;-68
2022/01/27 02:45:45;;;;;;;42.40;28.23;;;;;;;3.83;80.48;102535.13;5069406;28;20032;-69
2022/01/27 02:48:12;;;;;;;41.08;28.88;;;;;;;3.72;80.88;102523.81;5070873;28;20025;-68
2022/01/27 02:50:38;;;;;;;48.67;29.27;;;;;;;3.76;81.03;102528.16;5070768;28;20052;-68
2022/01/27 02:53:06;;;;;;;44.45;29.85;;;;;;;3.81;81.15;102524.59;5071283;28;20144;-68
2022/01/27 02:55:32;;;;;;;45.72;29.65;;;;;;;3.73;81.24;102517.66;5070953;28;20024;-69
2022/01/27 02:57:58;;;;;;;41.58;28.88;;;;;;;3.75;81.68;102516.75;5070552;28;20032;-69
2022/01/27 03:00:25;;;;;;;47.78;28.33;;;;;;;3.80;81.45;102507.09;5069314;28;20063;-69
2022/01/27 03:02:51;;;;;;;47.42;28.73;;;;;;;3.86;80.75;102498.25;5070598;28;20032;-68
2022/01/27 03:05:16;;;;;;;41.10;27.23;;;;;;;3.83;81.53;102501.78;5086225;28;20108;-68
2022/01/27 03:07:47;;;;;;;47.55;28.42;;;;;;;3.91;80.88;102475.38;5070689;28;20037;-69
2022/01/27 03:10:16;;;;;;;44.45;29.33;;;;;;;3.81;80.72;102485.13;5070769;28;20052;-69
2022/01/27 03:12:47;;;;;;;42.45;27.80;;;;;;;3.84;81.53;102489.50;5069492;28;20109;-68
2022/01/27 03:15:13;;;;;;;44.28;29.17;;;;;;;3.76;81.46;102479.03;5070330;28;20091;-68
2022/01/27 03:17:41;;;;;;;46.28;28.55;;;;;;;3.82;81.63;102496.53;5069779;28;20482;-68
2022/01/27 03:20:09;;;;;;;49.70;28.88;;;;;;;3.80;82.27;102498.31;5052523;28;20096;-69
2022/01/27 03:22:34;;;;;;;39.75;27.70;;;;;;;3.82;81.77;102499.16;5071025;28;20032;-68
2022/01/27 03:25:00;;;;;;;44.35;27.38;;;;;;;3.90;80.84;102476.28;5070469;28;20043;-68
2022/01/27 03:27:27;;;;;;;43.00;27.42;;;;;;;3.82;81.80;102488.63;5070537;28;20039;-69
2022/01/27 03:29:52;;;;;;;41.50;27.35;;;;;;;3.92;81.00;102463.13;5068923;28;20028;-68
2022/01/27 03:32:18;;;;;;;40.78;27.58;;;;;;;3.85;81.60;102459.66;5070542;28;20518;-68
2022/01/27 03:34:43;;;;;;;40.40;26.85;;;;;;;3.82;81.43;102468.47;5070275;28;20042;-69
2022/01/27 03:37:09;;;;;;;40.25;27.80;;;;;;;3.81;81.97;102445.66;5070486;28;20039;-68
2022/01/27 03:39:39;;;;;;;42.53;28.23;;;;;;;3.75;82.43;102448.34;5069049;28;20387;-68
2022/01/27 03:42:08;;;;;;;38.65;24.83;;;;;;;3.92;80.99;102449.97;5070505;28;20458;-68
2022/01/27 03:44:34;;;;;;;44.38;27.85;;;;;;;3.86;81.53;102461.41;5069633;28;20044;-68
2022/01/27 03:46:59;;;;;;;42.13;27.38;;;;;;;3.81;81.66;102458.81;5069890;28;20028;-68
2022/01/27 03:49:27;;;;;;;43.20;27.27;;;;;;;3.78;81.81;102447.44;5070546;28;20064;-68
2022/01/27 03:51:58;;;;;;;42.75;28.25;;;;;;;3.83;82.10;102462.31;5070276;28;20024;-68
2022/01/27 03:54:24;;;;;;;46.17;28.17;;;;;;;3.75;81.88;102464.13;5069729;28;20060;-68
2022/01/27 03:56:49;;;;;;;49.60;28.17;;;;;;;3.75;82.11;102461.50;5068890;28;20530;-68
2022/01/27 03:59:17;;;;;;;44.55;28.13;;;;;;;3.81;82.50;102452.69;5084973;28;20035;-69
2022/01/27 04:01:43;;;;;;;40.80;27.40;;;;;;;3.94;82.00;102445.53;5068762;28;20062;-68
2022/01/27 04:04:13;;;;;;;45.90;28.55;;;;;;;3.93;81.89;102444.66;5069729;28;20036;-68
2022/01/27 04:06:40;;;;;;;43.50;28.30;;;;;;;3.81;82.65;102444.78;5070188;28;20111;-68
2022/01/27 04:09:11;;;;;;;43.35;26.52;;;;;;;3.84;82.77;102442.13;5069598;28;20111;-68
2022/01/27 04:11:39;;;;;;;43.45;27.63;;;;;;;3.75;83.14;102427.28;5068979;28;20428;-69
2022/01/27 04:14:04;;;;;;;44.92;27.65;;;;;;;3.86;82.95;102424.56;5069400;28;20048;-69
2022/01/27 04:16:30;;;;;;;44.85;28.35;;;;;;;3.89;82.70;102419.28;5070057;28;20028;-68
2022/01/27 04:18:55;;;;;;;44.15;27.42;;;;;;;3.90;83.21;102409.63;5068674;28;20471;-69
2022/01/27 04:21:20;;;;;;;43.45;27.00;;;;;;;3.83;82.73;102407.03;5069417;28;20067;-68
2022/01/27 04:23:46;;;;;;;44.58;27.58;;;;;;;3.85;82.92;102413.19;5068859;28;20036;-69
2022/01/27 04:26:16;;;;;;;39.88;26.48;;;;;;;3.76;83.63;102407.09;5069769;28;20107;-69
2022/01/27 04:28:42;;;;;;;47.33;27.38;;;;;;;3.91;83.16;102428.00;5068235;28;20038;-68
2022/01/27 04:31:10;;;;;;;41.72;27.02;;;;;;;3.82;83.50;102407.94;5069375;28;20036;-68
2022/01/27 04:33:37;;;;;;;49.88;27.10;;;;;;;3.79;83.52;102401.81;5051365;28;20372;-68
2022/01/27 04:36:09;;;;;;;44.97;25.63;;;;;;;3.85;83.47;102422.81;5071525;28;20028;-69
2022/01/27 04:38:51;;;;;;;42.83;26.33;;;;;;;3.99;82.99;102418.28;5085000;28;20908;-68
2022/01/27 04:41:24;;;;;;;42.88;27.73;;;;;;;3.93;83.12;102412.22;5068657;28;20048;-68
2022/01/27 04:43:58;;;;;;;39.28;26.00;;;;;;;3.86;83.49;102388.59;5069686;28;20036;-68
2022/01/27 04:46:32;;;;;;;43.40;26.98;;;;;;;3.87;83.93;102384.19;5068872;28;20449;-69
2022/01/27 04:49:01;;;;;;;40.40;25.17;;;;;;;3.82;83.51;102386.91;5069412;28;20029;-69
2022/01/27 04:51:28;;;;;;;44.25;26.58;;;;;;;3.82;83.89;102393.88;5069578;28;20024;-69
2022/01/27 04:54:03;;;;;;;41.40;26.05;;;;;;;3.86;83.61;102385.97;5069223;28;20371;-69
2022/01/27 04:56:31;;;;;;;40.97;26.17;;;;;;;3.79;83.39;102389.53;5069772;28;20136;-68
2022/01/27 04:59:04;;;;;;;42.22;25.73;;;;;;;3.77;83.95;102387.81;5068504;28;20121;-68
2022/01/27 05:01:45;;;;;;;44.05;26.65;;;;;;;3.81;83.53;102382.50;5069272;28;20059;-69
2022/01/27 05:04:17;;;;;;;43.28;25.92;;;;;;;3.83;83.10;102383.38;5069159;28;20025;-69
2022/01/27 05:06:43;;;;;;;39.30;24.20;;;;;;;3.81;83.89;102374.59;5069814;28;20032;-68
2022/01/27 05:09:08;;;;;;;44.30;27.08;;;;;;;3.78;83.98;102361.47;5051466;28;20087;-69
2022/01/27 05:11:45;;;;;;;38.60;25.15;;;;;;;3.85;83.21;102346.50;5069141;28;20093;-68
2022/01/27 05:16:42;;;;;;;42.75;27.52;;;;;;;3.73;84.03;102363.28;5069606;28;20098;-68
2022/01/27 05:19:07;;;;;;;44.30;26.88;;;;;;;3.71;84.73;102361.56;5051794;28;20040;-69
2022/01/27 05:21:33;;;;;;;38.63;25.45;;;;;;;3.69;84.74;102356.31;5069594;28;20040;-68
2022/01/27 05:24:00;;;;;;;40.75;22.30;;;;;;;3.85;83.92;102354.38;5067507;28;20082;-69
2022/01/27 05:26:25;;;;;;;39.63;25.80;;;;;;;3.73;84.39;102355.38;5068025;28;20024;-68
2022/01/27 05:28:51;;;;;;;45.25;26.98;;;;;;;3.77;84.50;102341.31;5068743;28;20105;-69
2022/01/27 05:31:16;;;;;;;40.65;25.17;;;;;;;3.72;84.93;102347.53;5069606;28;20111;-68
2022/01/27 05:33:42;;;;;;;38.30;22.45;;;;;;;3.79;84.99;102344.78;5069630;28;20420;-67
2022/01/27 05:36:07;;;;;;;42.92;26.92;;;;;;;3.77;84.90;102332.56;5072179;28;20040;-67
2022/01/27 05:38:38;;;;;;;40.35;24.27;;;;;;;3.89;84.29;102321.91;5072923;28;20115;-68
2022/01/27 05:41:05;;;;;;;40.22;25.73;;;;;;;3.86;84.06;102319.31;5072649;28;20024;-67
2022/01/27 05:43:31;;;;;;;47.60;28.10;;;;;;;3.90;83.88;102328.91;5072143;28;20020;-68
2022/01/27 05:45:56;;;;;;;46.00;25.65;;;;;;;3.87;84.64;102328.94;5070623;28;20043;-67
2022/01/27 05:48:21;;;;;;;41.13;26.45;;;;;;;3.84;84.80;102329.84;5073066;28;20039;-67
2022/01/27 05:50:47;;;;;;;39.10;24.00;;;;;;;3.93;84.27;102342.00;5072542;28;20039;-67
2022/01/27 05:53:15;;;;;;;43.80;26.92;;;;;;;3.90;84.32;102317.50;5072207;28;20121;-68
2022/01/27 05:55:43;;;;;;;42.90;27.13;;;;;;;3.91;84.48;102328.00;5072728;28;20029;-67
2022/01/27 05:58:08;;;;;;;42.85;27.17;;;;;;;3.87;85.07;102329.78;5072007;28;20364;-67
2022/01/27 06:00:36;;;;;;;43.20;26.80;;;;;;;3.93;84.91;102323.59;5071916;28;20039;-67
2022/01/27 06:03:03;;;;;;;43.65;26.92;;;;;;;3.97;85.18;102320.06;5070603;28;20059;-67
2022/01/27 06:05:29;;;;;;;43.15;26.30;;;;;;;3.94;85.05;102313.94;5071946;28;20044;-67
2022/01/27 06:07:55;;;;;;;45.13;25.80;;;;;;;3.94;84.63;102300.78;5072009;28;20455;-68
2022/01/27 06:10:20;;;;;;;46.78;26.30;;;;;;;4.09;84.45;102325.16;5074003;28;20059;-67
2022/01/27 06:12:57;;;;;;;37.40;20.80;;;;;;;4.13;83.84;102317.22;5071527;28;20072;-67
2022/01/27 06:15:24;;;;;;;46.00;26.77;;;;;;;4.08;84.50;102309.38;5072179;28;20086;-67
2022/01/27 06:17:50;;;;;;;43.85;27.70;;;;;;;4.15;84.55;102302.25;5072227;28;20021;-67
2022/01/27 06:20:17;;;;;;;46.67;27.55;;;;;;;4.14;84.77;102295.25;5072113;28;20043;-68
2022/01/27 06:22:42;;;;;;;44.90;28.25;;;;;;;4.20;85.49;102297.81;5072282;28;20074;-68
2022/01/27 06:25:09;;;;;;;50.00;27.90;;;;;;;4.18;84.96;102311.03;5071324;28;20024;-68
2022/01/27 06:27:35;;;;;;;51.40;29.10;;;;;;;4.13;85.86;102309.31;5071382;28;20075;-67
2022/01/27 06:30:00;;;;;;;44.75;28.25;;;;;;;4.08;86.23;102298.84;5070242;28;20052;-68
2022/01/27 06:32:26;;;;;;;43.80;28.35;;;;;;;4.15;86.52;102302.25;5071983;28;20104;-67
2022/01/27 06:34:51;;;;;;;45.17;28.35;;;;;;;4.13;87.02;102307.56;5070475;28;20081;-67
2022/01/27 06:37:17;;;;;;;48.38;28.02;;;;;;;4.12;86.74;102304.94;5071526;28;20037;-68
2022/01/27 06:39:42;;;;;;;44.60;27.42;;;;;;;4.14;86.94;102303.16;5071737;28;20546;-67
2022/01/27 06:42:08;;;;;;;48.15;29.92;;;;;;;4.12;87.84;102303.19;5070719;28;20040;-67
2022/01/27 06:44:34;;;;;;;48.22;28.50;;;;;;;4.14;87.19;102298.75;5069653;28;20036;-67
2022/01/27 06:47:00;;;;;;;51.63;28.80;;;;;;;4.12;87.82;102281.25;5070557;28;20051;-67
2022/01/27 06:49:25;;;;;;;50.08;30.35;;;;;;;4.20;87.22;102274.13;5071763;28;20028;-68
2022/01/27 06:51:51;;;;;;;44.60;27.35;;;;;;;4.14;87.57;102255.78;5071162;28;20039;-67
2022/01/27 06:54:17;;;;;;;43.78;27.40;;;;;;;4.18;87.22;102268.03;5071580;28;20042;-67
2022/01/27 06:56:44;;;;;;;51.75;29.88;;;;;;;4.22;86.94;102281.09;5069530;28;20373;-67
2022/01/27 06:59:10;;;;;;;51.60;29.50;;;;;;;4.20;88.06;102285.50;5070871;28;20028;-68
2022/01/27 07:01:35;;;;;;;50.90;29.17;;;;;;;4.20;87.97;102280.25;5070681;28;20032;-68
2022/01/27 07:04:01;;;;;;;49.15;29.77;;;;;;;4.26;87.95;102276.66;5070014;28;20209;-68
2022/01/27 07:06:27;;;;;;;50.13;29.05;;;;;;;4.26;87.76;102271.41;5069505;28;20075;-68
2022/01/27 07:08:53;;;;;;;48.75;29.20;;;;;;;4.23;87.70;102281.97;5071362;28;20040;-68
2022/01/27 07:11:19;;;;;;;44.75;25.52;;;;;;;4.30;87.37;102271.34;5069582;28;20359;-67
2022/01/27 07:13:45;;;;;;;48.45;29.30;;;;;;;4.28;87.63;102288.91;5070301;28;20135;-68
2022/01/27 07:16:11;;;;;;;50.83;28.48;;;;;;;4.27;87.66;102281.06;5070533;28;20036;-67
2022/01/27 07:18:36;;;;;;;46.58;28.38;;;;;;;4.26;88.10;102276.66;5069097;28;20021;-68
2022/01/27 07:21:05;;;;;;;50.08;30.38;;;;;;;4.26;87.71;102292.47;5069445;28;20031;-67
2022/01/27 07:23:30;;;;;;;49.25;30.80;;;;;;;4.37;87.49;102282.66;5072303;28;20028;-68
2022/01/27 07:25:56;;;;;;;51.20;30.95;;;;;;;4.30;87.33;102286.28;5069976;28;20517;-67
2022/01/27 07:28:21;;;;;;;55.40;30.30;;;;;;;4.28;87.54;102291.56;5070691;28;20032;-68
2022/01/27 07:30:47;;;;;;;51.42;28.70;;;;;;;4.36;87.02;102293.22;5070887;28;20503;-67
2022/01/27 07:33:12;;;;;;;55.88;31.52;;;;;;;4.35;87.74;102288.84;5069412;28;20077;-68
2022/01/27 07:35:38;;;;;;;52.22;30.90;;;;;;;4.38;87.82;102291.44;5068738;28;20028;-67
2022/01/27 07:38:05;;;;;;;50.40;30.33;;;;;;;4.37;87.98;102290.56;5068447;28;20467;-67
2022/01/27 07:40:30;;;;;;;49.50;30.08;;;;;;;4.37;87.85;102293.19;5070330;28;20032;-68
2022/01/27 07:42:56;;;;;;;51.70;29.45;;;;;;;4.46;87.77;102298.31;5070369;28;20025;-68
2022/01/27 07:45:22;;;;;;;46.05;29.35;;;;;;;4.52;87.01;102287.69;5070253;28;20031;-67
2022/01/27 07:47:47;;;;;;;52.97;30.70;;;;;;;4.47;87.01;102294.81;5069333;28;20456;-68
2022/01/27 07:50:13;;;;;;;56.58;31.25;;;;;;;4.48;87.67;102295.69;5068819;28;20021;-68
2022/01/27 07:52:41;;;;;;;53.67;30.10;;;;;;;4.45;87.33;102280.78;5070389;28;20405;-68
2022/01/27 07:55:10;;;;;;;50.08;30.00;;;;;;;4.57;87.44;102289.41;5068411;28;20112;-68
2022/01/27 07:57:36;;;;;;;52.83;31.35;;;;;;;4.50;88.11;102297.41;5068834;28;20044;-68
2022/01/27 08:00:04;;;;;;;55.25;31.23;;;;;;;4.52;89.37;102294.72;5069292;28;20020;-68
2022/01/27 08:02:30;;;;;;;57.03;31.65;;;;;;;4.51;89.96;102295.63;5068553;28;20028;-68
2022/01/27 08:04:58;;;;;;;54.65;31.05;;;;;;;4.51;90.25;102308.81;5069803;28;20031;-69
2022/01/27 08:07:24;;;;;;;59.17;31.63;;;;;;;4.47;91.12;102299.19;5069679;28;20024;-68
2022/01/27 08:09:49;;;;;;;60.47;31.92;;;;;;;4.46;92.25;102297.47;5069450;28;20093;-68
2022/01/27 08:12:18;;;;;;;65.07;33.03;;;;;;;4.44;92.02;102302.78;5068844;28;20028;-68
2022/01/27 08:14:46;;;;;;;59.00;34.22;;;;;;;4.47;92.31;102309.72;5067327;28;20040;-68
2022/01/27 08:17:13;;;;;;;65.55;34.35;;;;;;;4.46;92.49;102292.19;5069195;28;20028;-68
2022/01/27 08:19:39;;;;;;;65.97;33.08;;;;;;;4.54;93.26;102299.09;5068509;28;20036;-68
2022/01/27 08:22:07;;;;;;;65.43;36.08;;;;;;;4.47;93.97;102300.09;5068637;28;20025;-68
2022/01/27 08:24:33;;;;;;;62.85;34.42;;;;;;;4.45;93.97;102290.47;5070373;28;20028;-68
2022/01/27 08:27:03;;;;;;;54.35;30.73;;;;;;;4.47;93.58;102294.81;5069267;28;20031;-68
2022/01/27 08:29:35;;;;;;;;;;;;;;;4.48;92.39;102295.69;5069118;28;20032;-68
2022/01/27 08:32:02;;;;;;;63.88;32.78;;;;;;;4.48;94.04;102298.31;5070328;28;20367;-68
2022/01/27 08:34:37;;;;;;;71.75;36.10;;;;;;;4.45;94.91;102283.44;5070564;28;20036;-68
2022/01/27 08:37:05;;;;;;;65.85;35.40;;;;;;;4.44;95.39;102286.06;5070070;28;20021;-68
2022/01/27 08:39:31;;;;;;;71.05;37.22;;;;;;;4.43;95.49;102290.47;5070076;28;20035;-68
2022/01/27 08:41:57;;;;;;;63.40;35.67;;;;;;;4.47;95.00;102288.66;5068446;28;20024;-68
2022/01/27 08:44:22;;;;;;;65.70;36.10;;;;;;;4.43;95.81;102281.69;5068544;28;20028;-68
2022/01/27 08:46:48;;;;;;;70.43;37.17;;;;;;;4.40;95.84;102281.75;5070498;28;20033;-68
2022/01/27 08:49:14;;;;;;;67.90;37.67;;;;;;;4.45;96.39;102286.06;5071887;28;20024;-68
2022/01/27 08:51:39;;;;;;;66.15;36.97;;;;;;;4.46;95.76;102290.44;5070058;28;20103;-68
2022/01/27 08:54:05;;;;;;;65.47;35.10;;;;;;;4.54;95.90;102293.81;5069586;28;20116;-68
2022/01/27 08:56:31;;;;;;;67.10;35.35;;;;;;;4.55;95.36;102287.66;5068103;28;20024;-68
2022/01/27 08:58:57;;;;;;;65.90;36.38;;;;;;;4.58;95.20;102281.47;5069083;28;20019;-68
2022/01/27 09:01:25;;;;;;;63.78;35.00;;;;;;;4.60;95.42;102284.09;5069376;28;20115;-68
2022/01/27 09:03:51;;;;;;;65.53;35.88;;;;;;;4.55;96.51;102273.63;5068543;28;20043;-68
2022/01/27 09:06:19;;;;;;;68.75;37.38;;;;;;;4.60;97.01;102292.88;5067664;28;20025;-68
2022/01/27 09:08:47;;;;;;;71.57;37.00;;;;;;;4.62;97.62;102293.72;5071480;28;20052;-68
2022/01/27 09:11:12;;;;;;;65.80;35.05;;;;;;;4.69;96.75;102279.53;5073231;28;20043;-68
2022/01/27 09:13:38;;;;;;;67.85;35.22;;;;;;;4.69;97.55;102274.28;5070984;28;20049;-68
2022/01/27 09:16:07;;;;;;;59.03;35.35;;;;;;;4.88;96.91;102284.53;5071996;28;20024;-68
2022/01/27 09:18:33;;;;;;;66.30;36.47;;;;;;;4.80;97.41;102283.78;5072886;28;20033;-68
2022/01/27 09:21:06;;;;;;;66.32;35.90;;;;;;;4.85;98.28;102279.28;5073093;28;20043;-68
2022/01/27 09:23:33;;;;;;;58.00;34.47;;;;;;;4.93;96.77;102265.09;5071896;28;20056;-68
2022/01/27 09:26:04;;;;;;;66.30;36.08;;;;;;;4.93;97.52;102277.41;5073394;28;20017;-68
2022/01/27 09:28:29;;;;;;;62.83;35.03;;;;;;;4.92;97.85;102271.28;5075000;28;20035;-69
2022/01/27 09:30:56;;;;;;;63.53;36.58;;;;;;;4.87;97.26;102267.84;5073509;28;20033;-68
2022/01/27 09:33:22;;;;;;;63.35;37.00;;;;;;;4.94;98.14;102287.06;5072055;28;20356;-68
2022/01/27 09:35:48;;;;;;;63.72;36.08;;;;;;;5.01;97.53;102276.38;5073007;28;20342;-68
2022/01/27 09:38:16;;;;;;;61.25;37.00;;;;;;;4.97;98.56;102284.38;5072843;28;20039;-68
2022/01/27 09:40:43;;;;;;;56.13;34.63;;;;;;;5.00;97.83;102286.97;5073132;28;20070;-69
2022/01/27 09:43:08;;;;;;;56.08;34.35;;;;;;;5.02;98.13;102285.16;5072955;28;20027;-68
2022/01/27 09:45:39;;;;;;;61.95;37.03;;;;;;;5.03;98.40;102273.75;5071965;28;20036;-68
2022/01/27 09:48:14;;;;;;;63.15;35.60;;;;;;;5.08;98.08;102276.28;5072302;28;20025;-67
2022/01/27 09:50:59;;;;;;;57.47;34.25;;;;;;;5.09;98.42;102278.00;5072227;28;20100;-68
2022/01/27 09:53:25;;;;;;;59.60;34.53;;;;;;;5.11;97.97;102286.78;5072636;28;20032;-68
2022/01/27 09:55:53;;;;;;;56.83;35.05;;;;;;;5.07;98.57;102287.75;5070790;28;20093;-68
2022/01/27 09:58:21;;;;;;;51.45;33.50;;;;;;;5.10;97.91;102298.22;5071928;28;20100;-68
2022/01/27 10:00:48;;;;;;;54.85;34.03;;;;;;;5.06;99.32;102294.78;5071421;28;20040;-68
2022/01/27 10:03:16;;;;;;;55.08;33.53;;;;;;;5.08;99.33;102286.84;5087511;28;20039;-68
2022/01/27 10:05:46;;;;;;;57.58;35.10;;;;;;;5.09;98.79;102288.56;5087177;28;20150;-68
2022/01/27 10:08:18;;;;;;;49.97;32.53;;;;;;;5.14;99.17;102294.63;5072359;28;20028;-68
2022/01/27 10:10:46;;;;;;;51.08;33.05;;;;;;;5.14;99.50;102302.53;5071139;28;20092;-68
2022/01/27 10:13:35;;;;;;;52.08;33.78;;;;;;;5.12;99.49;102302.59;5071941;28;20024;-68
2022/01/27 10:16:01;;;;;;;51.40;33.60;;;;;;;5.12;99.57;102297.31;5072747;28;20029;-68
2022/01/27 10:18:35;;;;;;;47.25;31.08;;;;;;;5.13;99.79;102287.63;5071193;28;20413;-68
2022/01/27 10:21:07;;;;;;;48.53;33.10;;;;;;;5.18;99.87;102289.28;5070756;28;20027;-68
2022/01/27 10:23:38;;;;;;;42.65;30.40;;;;;;;5.24;99.35;102296.22;5072613;28;20032;-69
2022/01/27 10:26:13;;;;;;;46.90;30.38;;;;;;;5.27;99.78;102300.59;5066461;28;20401;-69
2022/01/27 10:28:45;;;;;;;42.65;30.58;;;;;;;5.24;99.69;102297.09;5071663;28;20020;-68
2022/01/27 10:31:21;;;;;;;43.75;30.75;;;;;;;5.27;100.00;102297.94;5069957;28;20036;-68
2022/01/27 10:34:02;;;;;;;46.20;31.27;;;;;;;5.26;100.00;102296.19;5069397;28;20032;-68
2022/01/27 10:36:45;;;;;;;47.45;30.15;;;;;;;5.27;100.00;102290.91;5062228;28;20069;-68
2022/01/27 10:39:14;;;;;;;50.33;31.33;;;;;;;5.26;100.00;102288.28;5086167;28;20372;-68
2022/01/27 10:41:55;;;;;;;47.88;34.20;;;;;;;5.31;100.00;102287.31;5069041;28;20028;-68
2022/01/27 10:44:23;;;;;;;47.22;32.80;;;;;;;5.29;100.00;102285.59;5070131;28;20518;-68
2022/01/27 10:47:16;;;;;;;46.75;33.25;;;;;;;5.31;100.00;102283.78;5069783;28;20111;-69
2022/01/27 10:49:52;;;;;;;50.42;32.30;;;;;;;5.32;100.00;102288.16;5068795;28;20031;-69
2022/01/27 10:52:32;;;;;;;45.50;31.98;;;;;;;5.34;100.00;102294.28;5070005;28;20021;-68
2022/01/27 10:55:06;;;;;;;42.63;30.88;;;;;;;5.38;100.00;102294.22;5068660;28;20029;-68
2022/01/27 10:57:31;;;;;;;43.47;30.73;;;;;;;5.36;100.00;102290.72;5068479;28;20031;-69
2022/01/27 11:00:17;;;;;;;46.33;31.73;;;;;;;5.36;100.00;102290.72;5066963;28;20024;-68
2022/01/27 11:02:56;;;;;;;47.30;32.90;;;;;;;5.38;100.00;102291.59;5070729;28;20578;-68
2022/01/27 11:05:26;;;;;;;44.63;31.13;;;;;;;5.42;100.00;102295.91;5070882;28;20552;-68
2022/01/27 11:07:52;;;;;;;42.60;31.88;;;;;;;5.49;100.00;102290.50;5070739;28;20032;-68
2022/01/27 11:10:20;;;;;;;47.75;32.40;;;;;;;5.50;100.00;102292.22;5070799;28;20028;-67
2022/01/27 11:12:46;;;;;;;45.22;31.33;;;;;;;5.55;100.00;102285.09;5070338;28;20035;-67
2022/01/27 11:15:14;;;;;;;48.00;31.98;;;;;;;5.57;100.00;102278.03;5068157;28;20076;-68
2022/01/27 11:17:41;;;;;;;46.33;31.67;;;;;;;5.63;100.00;102276.16;5069095;28;20425;-68
2022/01/27 11:23:24;;;;;;;45.50;32.55;;;;;;;5.61;100.00;102263.88;5070256;28;20039;-68
2022/01/27 11:25:51;;;;;;;47.70;32.20;;;;;;;5.74;100.00;102273.31;5069288;28;20040;-68
2022/01/27 11:28:19;;;;;;;43.13;29.02;;;;;;;5.74;100.00;102264.53;5068581;28;20024;-68
2022/01/27 11:30:51;;;;;;;44.55;31.40;;;;;;;5.80;100.00;102254.69;5069129;28;20028;-68
2022/01/27 11:33:18;;;;;;;44.95;30.52;;;;;;;5.81;100.00;102256.44;5066486;28;20615;-68
2022/01/27 11:35:43;;;;;;;47.60;30.45;;;;;;;5.87;100.00;102258.94;5079806;28;20217;-68
2022/01/27 11:38:10;;;;;;;47.13;31.83;;;;;;;5.91;100.00;102246.53;5073722;28;20026;-68
2022/01/27 11:40:45;;;;;;;47.13;32.30;;;;;;;5.88;100.00;102239.56;5069978;28;20381;-68
2022/01/27 11:43:13;;;;;;;50.15;32.50;;;;;;;5.96;100.00;102242.06;5070357;28;20097;-68
2022/01/27 11:45:52;;;;;;;45.60;32.03;;;;;;;6.01;100.00;102250.78;5069565;28;20028;-67
2022/01/27 11:48:23;;;;;;;47.30;31.70;;;;;;;6.04;100.00;102241.91;5067943;28;20029;-68
2022/01/27 11:50:58;;;;;;;45.50;30.80;;;;;;;6.06;100.00;102240.09;5068218;28;20060;-68
2022/01/27 11:53:28;;;;;;;47.95;32.03;;;;;;;6.14;100.00;102248.72;5070209;28;20078;-69
2022/01/27 11:55:54;;;;;;;43.97;31.52;;;;;;;6.10;100.00;102240.00;5069752;28;20078;-68